CheckWX is a tool to help pilots better visualize weather data.  It is not intended as a substitute for an official pre-flight weather briefing.

16:36:32 UTC

RPLB TAF
Subic Bay International Airport
Olongapo City, Philippines
TAF RPLB 082300Z 0900/0924 06008KT 9999 FEW020 SCT300 TX33/0906 TN25/0921Z TEMPO 0900/0906 12014KT FEW018CB FEW020 BKN300

Jul-9@
00:00 UTC

Jul-9 @ 00:00 UTC

Jul-10@
00:00 UTC

Jul-10 @ 00:00 UTC

TAF RPLB 082300Z 0900/0924 06008KT 9999 FEW020 SCT300 TX33/0906 TN25/0921Z
Wind
  • 060° at 8 KTS
Cloud Levels
  • Few at 2,000' AGL
  • Scattered at 30,000' AGL

Jul-9@
00:00 UTC

Jul-9 @ 00:00 UTC

Jul-9@
06:00 UTC

Jul-9 @ 06:00 UTC

TEMPO 0900/0906 12014KT FEW018CB FEW020 BKN300

Expired

Wind
  • 120° at 14 KTS
Cloud Levels
  • Few at 1,800' AGL
  • Few at 2,000' AGL
  • Broken at 30,000' AGL